Aviation Digital Data Service (ADDS)

Output produced by METARs form (0516 UTC 21 January 2019)
found at http://www.aviationweather.gov/metar/data/
 
Forecast for: EDDR (SAARBRUECKEN , DE)
Text: TAF EDDR 202300Z 2100/2124 04008KT 9999 SCT025
Forecast period: 0000 to 1200 UTC 21 January 2019
Forecast type: FROM: standard forecast or significant change
Winds: from the NE (40 degrees) at 9 MPH (8 knots; 4.1 m/s)
Visibility: 6 or more miles 10+ km)
Ceiling: at least 12,000 feet AGL
Clouds: scattered clouds at 2500 feet AGL
Weather: no significant weather forecast for this period
Text: BECMG 2112/2115 VRB03KT
Forecast period: 1200 UTC 21 January 2019 to 0000 UTC 22 January 2019
Forecast type: BECOMING: Conditions expected to become as follows by 1500 UTC 21 January 2019
Winds: variable direction winds at 3 MPH (3 knots; 1.5 m/s)
Visibility: 6 or more miles 10+ km)
Ceiling: at least 12,000 feet AGL
Clouds: scattered clouds at 2500 feet AGL
Weather: no significant weather forecast for this period